sensor_id;sensor_type;location;lat;lon;timestamp;P1;durP1;ratioP1;P2;durP2;ratioP2
4472;SDS011;2249;42.626;23.320;2024-02-21T00:02:01;5.73;;;4.87;;
4472;SDS011;2249;42.626;23.320;2024-02-21T00:04:27;6.57;;;5.00;;
4472;SDS011;2249;42.626;23.320;2024-02-21T00:06:54;6.57;;;4.77;;
4472;SDS011;2249;42.626;23.320;2024-02-21T00:09:22;7.20;;;5.30;;
4472;SDS011;2249;42.626;23.320;2024-02-21T00:11:48;8.27;;;5.87;;
4472;SDS011;2249;42.626;23.320;2024-02-21T00:14:15;6.00;;;4.70;;
4472;SDS011;2249;42.626;23.320;2024-02-21T00:16:41;5.20;;;4.70;;
4472;SDS011;2249;42.626;23.320;2024-02-21T00:19:08;8.80;;;6.10;;
4472;SDS011;2249;42.626;23.320;2024-02-21T00:21:34;8.60;;;6.17;;
4472;SDS011;2249;42.626;23.320;2024-02-21T00:24:01;9.20;;;5.53;;
4472;SDS011;2249;42.626;23.320;2024-02-21T00:26:29;7.60;;;5.20;;
4472;SDS011;2249;42.626;23.320;2024-02-21T00:28:55;5.23;;;4.70;;
4472;SDS011;2249;42.626;23.320;2024-02-21T00:31:22;7.40;;;4.70;;
4472;SDS011;2249;42.626;23.320;2024-02-21T00:33:48;6.60;;;4.53;;
4472;SDS011;2249;42.626;23.320;2024-02-21T00:36:15;6.90;;;4.77;;
4472;SDS011;2249;42.626;23.320;2024-02-21T00:38:42;6.17;;;4.80;;
4472;SDS011;2249;42.626;23.320;2024-02-21T00:41:08;6.30;;;4.63;;
4472;SDS011;2249;42.626;23.320;2024-02-21T00:43:36;5.30;;;4.40;;
4472;SDS011;2249;42.626;23.320;2024-02-21T00:46:03;5.80;;;5.20;;
4472;SDS011;2249;42.626;23.320;2024-02-21T00:48:31;7.13;;;5.70;;
4472;SDS011;2249;42.626;23.320;2024-02-21T00:50:58;5.50;;;4.90;;
4472;SDS011;2249;42.626;23.320;2024-02-21T00:53:24;6.83;;;5.47;;
4472;SDS011;2249;42.626;23.320;2024-02-21T00:55:50;9.40;;;6.50;;
4472;SDS011;2249;42.626;23.320;2024-02-21T00:58:17;7.60;;;5.97;;
4472;SDS011;2249;42.626;23.320;2024-02-21T01:00:45;6.50;;;5.60;;
4472;SDS011;2249;42.626;23.320;2024-02-21T01:03:11;5.77;;;4.90;;
4472;SDS011;2249;42.626;23.320;2024-02-21T01:05:38;6.73;;;5.80;;
4472;SDS011;2249;42.626;23.320;2024-02-21T01:08:05;5.80;;;5.20;;
4472;SDS011;2249;42.626;23.320;2024-02-21T01:10:31;6.93;;;5.50;;
4472;SDS011;2249;42.626;23.320;2024-02-21T01:12:58;6.20;;;5.13;;
4472;SDS011;2249;42.626;23.320;2024-02-21T01:15:24;6.47;;;5.57;;
4472;SDS011;2249;42.626;23.320;2024-02-21T01:17:52;6.00;;;5.20;;
4472;SDS011;2249;42.626;23.320;2024-02-21T01:20:20;7.43;;;6.53;;
4472;SDS011;2249;42.626;23.320;2024-02-21T01:22:46;7.17;;;6.47;;
4472;SDS011;2249;42.626;23.320;2024-02-21T01:25:13;8.00;;;6.53;;
4472;SDS011;2249;42.626;23.320;2024-02-21T01:27:39;8.43;;;6.57;;
4472;SDS011;2249;42.626;23.320;2024-02-21T01:30:06;6.30;;;5.40;;
4472;SDS011;2249;42.626;23.320;2024-02-21T01:32:33;8.70;;;6.80;;
4472;SDS011;2249;42.626;23.320;2024-02-21T01:35:00;7.33;;;6.07;;
4472;SDS011;2249;42.626;23.320;2024-02-21T01:37:27;9.50;;;6.83;;
4472;SDS011;2249;42.626;23.320;2024-02-21T01:39:53;10.50;;;7.50;;
4472;SDS011;2249;42.626;23.320;2024-02-21T01:42:20;10.50;;;7.87;;
4472;SDS011;2249;42.626;23.320;2024-02-21T01:44:46;16.30;;;10.23;;
4472;SDS011;2249;42.626;23.320;2024-02-21T01:47:13;15.10;;;10.30;;
4472;SDS011;2249;42.626;23.320;2024-02-21T01:49:40;11.70;;;8.73;;
4472;SDS011;2249;42.626;23.320;2024-02-21T01:52:08;13.90;;;9.60;;
4472;SDS011;2249;42.626;23.320;2024-02-21T01:54:35;10.33;;;8.37;;
4472;SDS011;2249;42.626;23.320;2024-02-21T01:57:01;12.77;;;10.03;;
4472;SDS011;2249;42.626;23.320;2024-02-21T01:59:28;14.80;;;10.97;;
4472;SDS011;2249;42.626;23.320;2024-02-21T02:01:54;12.37;;;10.00;;
4472;SDS011;2249;42.626;23.320;2024-02-21T02:04:21;14.83;;;10.40;;
4472;SDS011;2249;42.626;23.320;2024-02-21T02:06:50;14.20;;;10.77;;
4472;SDS011;2249;42.626;23.320;2024-02-21T02:09:19;17.40;;;11.80;;
4472;SDS011;2249;42.626;23.320;2024-02-21T02:11:46;16.17;;;11.53;;
4472;SDS011;2249;42.626;23.320;2024-02-21T02:14:12;17.40;;;11.00;;
4472;SDS011;2249;42.626;23.320;2024-02-21T02:16:39;14.30;;;9.97;;
4472;SDS011;2249;42.626;23.320;2024-02-21T02:19:05;15.57;;;11.60;;
4472;SDS011;2249;42.626;23.320;2024-02-21T02:21:32;16.23;;;11.40;;
4472;SDS011;2249;42.626;23.320;2024-02-21T02:24:02;17.03;;;12.10;;
4472;SDS011;2249;42.626;23.320;2024-02-21T02:26:29;15.40;;;11.90;;
4472;SDS011;2249;42.626;23.320;2024-02-21T02:28:56;14.13;;;11.27;;
4472;SDS011;2249;42.626;23.320;2024-02-21T02:31:23;16.33;;;11.50;;
4472;SDS011;2249;42.626;23.320;2024-02-21T02:33:49;17.63;;;13.13;;
4472;SDS011;2249;42.626;23.320;2024-02-21T02:36:16;16.80;;;11.83;;
4472;SDS011;2249;42.626;23.320;2024-02-21T02:38:42;17.00;;;11.77;;
4472;SDS011;2249;42.626;23.320;2024-02-21T02:41:10;18.97;;;13.87;;
4472;SDS011;2249;42.626;23.320;2024-02-21T02:43:37;18.13;;;12.40;;
4472;SDS011;2249;42.626;23.320;2024-02-21T02:46:03;17.17;;;12.37;;
4472;SDS011;2249;42.626;23.320;2024-02-21T02:48:30;17.40;;;12.33;;
4472;SDS011;2249;42.626;23.320;2024-02-21T02:50:56;16.50;;;12.67;;
4472;SDS011;2249;42.626;23.320;2024-02-21T02:53:23;15.63;;;12.03;;
4472;SDS011;2249;42.626;23.320;2024-02-21T02:55:49;14.77;;;10.67;;
4472;SDS011;2249;42.626;23.320;2024-02-21T02:58:17;14.93;;;11.50;;
4472;SDS011;2249;42.626;23.320;2024-02-21T03:00:43;19.97;;;12.60;;
4472;SDS011;2249;42.626;23.320;2024-02-21T03:03:10;17.40;;;12.37;;
4472;SDS011;2249;42.626;23.320;2024-02-21T03:05:36;14.77;;;11.77;;
4472;SDS011;2249;42.626;23.320;2024-02-21T03:08:03;17.90;;;13.10;;
4472;SDS011;2249;42.626;23.320;2024-02-21T03:10:32;15.27;;;11.30;;
4472;SDS011;2249;42.626;23.320;2024-02-21T03:12:58;16.30;;;12.17;;
4472;SDS011;2249;42.626;23.320;2024-02-21T03:15:26;18.23;;;13.40;;
4472;SDS011;2249;42.626;23.320;2024-02-21T03:17:53;19.10;;;13.37;;
4472;SDS011;2249;42.626;23.320;2024-02-21T03:20:19;19.40;;;13.13;;
4472;SDS011;2249;42.626;23.320;2024-02-21T03:22:46;18.73;;;13.90;;
4472;SDS011;2249;42.626;23.320;2024-02-21T03:25:12;16.70;;;12.93;;
4472;SDS011;2249;42.626;23.320;2024-02-21T03:27:40;18.53;;;13.30;;
4472;SDS011;2249;42.626;23.320;2024-02-21T03:30:07;18.20;;;14.07;;
4472;SDS011;2249;42.626;23.320;2024-02-21T03:32:35;18.43;;;14.40;;
4472;SDS011;2249;42.626;23.320;2024-02-21T03:35:01;17.03;;;13.20;;
4472;SDS011;2249;42.626;23.320;2024-02-21T03:37:28;20.83;;;15.10;;
4472;SDS011;2249;42.626;23.320;2024-02-21T03:39:54;17.67;;;13.27;;
4472;SDS011;2249;42.626;23.320;2024-02-21T03:42:21;18.33;;;13.43;;
4472;SDS011;2249;42.626;23.320;2024-02-21T03:44:47;16.07;;;12.40;;
4472;SDS011;2249;42.626;23.320;2024-02-21T03:47:14;20.17;;;13.80;;
4472;SDS011;2249;42.626;23.320;2024-02-21T03:49:42;16.77;;;12.13;;
4472;SDS011;2249;42.626;23.320;2024-02-21T03:52:08;17.17;;;12.57;;
4472;SDS011;2249;42.626;23.320;2024-02-21T03:54:35;19.13;;;13.47;;
4472;SDS011;2249;42.626;23.320;2024-02-21T03:57:02;16.47;;;11.93;;
4472;SDS011;2249;42.626;23.320;2024-02-21T03:59:29;17.80;;;12.03;;
4472;SDS011;2249;42.626;23.320;2024-02-21T04:01:55;17.87;;;13.00;;
4472;SDS011;2249;42.626;23.320;2024-02-21T04:04:22;17.00;;;12.00;;
4472;SDS011;2249;42.626;23.320;2024-02-21T04:06:50;17.00;;;13.37;;
4472;SDS011;2249;42.626;23.320;2024-02-21T04:09:16;17.70;;;13.67;;
4472;SDS011;2249;42.626;23.320;2024-02-21T04:11:43;18.43;;;14.37;;
4472;SDS011;2249;42.626;23.320;2024-02-21T04:14:09;20.23;;;15.20;;
4472;SDS011;2249;42.626;23.320;2024-02-21T04:16:36;21.03;;;15.97;;
4472;SDS011;2249;42.626;23.320;2024-02-21T04:19:03;18.93;;;14.33;;
4472;SDS011;2249;42.626;23.320;2024-02-21T04:21:30;18.67;;;14.27;;
4472;SDS011;2249;42.626;23.320;2024-02-21T04:23:58;16.33;;;12.83;;
4472;SDS011;2249;42.626;23.320;2024-02-21T04:26:24;17.53;;;12.73;;
4472;SDS011;2249;42.626;23.320;2024-02-21T04:28:51;19.60;;;13.53;;
4472;SDS011;2249;42.626;23.320;2024-02-21T04:31:17;18.53;;;13.87;;
4472;SDS011;2249;42.626;23.320;2024-02-21T04:33:44;16.17;;;12.77;;
4472;SDS011;2249;42.626;23.320;2024-02-21T04:36:10;19.80;;;14.50;;
4472;SDS011;2249;42.626;23.320;2024-02-21T04:38:37;20.00;;;14.47;;
4472;SDS011;2249;42.626;23.320;2024-02-21T04:41:05;18.40;;;13.40;;
4472;SDS011;2249;42.626;23.320;2024-02-21T04:43:32;17.60;;;13.17;;
4472;SDS011;2249;42.626;23.320;2024-02-21T04:45:58;15.83;;;12.60;;
4472;SDS011;2249;42.626;23.320;2024-02-21T04:48:25;18.73;;;12.70;;
4472;SDS011;2249;42.626;23.320;2024-02-21T04:50:51;19.27;;;14.70;;
4472;SDS011;2249;42.626;23.320;2024-02-21T04:53:18;22.93;;;16.00;;
4472;SDS011;2249;42.626;23.320;2024-02-21T04:55:44;24.50;;;17.50;;
4472;SDS011;2249;42.626;23.320;2024-02-21T04:58:12;21.77;;;15.23;;
4472;SDS011;2249;42.626;23.320;2024-02-21T05:00:39;19.03;;;14.37;;
4472;SDS011;2249;42.626;23.320;2024-02-21T05:03:05;20.57;;;15.90;;
4472;SDS011;2249;42.626;23.320;2024-02-21T05:05:32;23.07;;;16.77;;
4472;SDS011;2249;42.626;23.320;2024-02-21T05:07:58;21.33;;;14.40;;
4472;SDS011;2249;42.626;23.320;2024-02-21T05:10:25;17.03;;;13.13;;
4472;SDS011;2249;42.626;23.320;2024-02-21T05:12:51;17.43;;;13.43;;
4472;SDS011;2249;42.626;23.320;2024-02-21T05:15:19;16.87;;;13.50;;
4472;SDS011;2249;42.626;23.320;2024-02-21T05:17:45;22.47;;;17.27;;
4472;SDS011;2249;42.626;23.320;2024-02-21T05:20:12;20.27;;;15.60;;
4472;SDS011;2249;42.626;23.320;2024-02-21T05:22:38;16.33;;;13.10;;
4472;SDS011;2249;42.626;23.320;2024-02-21T05:25:05;16.33;;;12.40;;
4472;SDS011;2249;42.626;23.320;2024-02-21T05:27:32;18.50;;;13.33;;
4472;SDS011;2249;42.626;23.320;2024-02-21T05:30:00;17.10;;;13.70;;
4472;SDS011;2249;42.626;23.320;2024-02-21T05:32:27;17.23;;;13.10;;
4472;SDS011;2249;42.626;23.320;2024-02-21T05:34:54;18.67;;;13.23;;
4472;SDS011;2249;42.626;23.320;2024-02-21T05:37:23;17.80;;;13.43;;
4472;SDS011;2249;42.626;23.320;2024-02-21T05:39:49;24.67;;;13.83;;
4472;SDS011;2249;42.626;23.320;2024-02-21T05:42:16;18.90;;;13.70;;
4472;SDS011;2249;42.626;23.320;2024-02-21T05:44:42;21.17;;;14.70;;
4472;SDS011;2249;42.626;23.320;2024-02-21T05:47:09;20.87;;;13.80;;
4472;SDS011;2249;42.626;23.320;2024-02-21T05:49:39;20.20;;;13.40;;
4472;SDS011;2249;42.626;23.320;2024-02-21T05:52:05;17.77;;;13.10;;
4472;SDS011;2249;42.626;23.320;2024-02-21T05:54:32;18.77;;;14.20;;
4472;SDS011;2249;42.626;23.320;2024-02-21T05:56:58;18.77;;;14.10;;
4472;SDS011;2249;42.626;23.320;2024-02-21T05:59:25;16.27;;;12.50;;
4472;SDS011;2249;42.626;23.320;2024-02-21T06:01:55;19.27;;;12.63;;
4472;SDS011;2249;42.626;23.320;2024-02-21T06:04:22;19.03;;;13.00;;
4472;SDS011;2249;42.626;23.320;2024-02-21T06:06:50;20.10;;;13.90;;
4472;SDS011;2249;42.626;23.320;2024-02-21T06:09:17;19.60;;;13.50;;
4472;SDS011;2249;42.626;23.320;2024-02-21T06:11:43;19.53;;;12.20;;
4472;SDS011;2249;42.626;23.320;2024-02-21T06:14:11;21.63;;;14.93;;
4472;SDS011;2249;42.626;23.320;2024-02-21T06:16:37;20.60;;;13.23;;
4472;SDS011;2249;42.626;23.320;2024-02-21T06:19:04;19.67;;;14.00;;
4472;SDS011;2249;42.626;23.320;2024-02-21T06:21:30;22.17;;;14.60;;
4472;SDS011;2249;42.626;23.320;2024-02-21T06:23:58;23.10;;;15.10;;
4472;SDS011;2249;42.626;23.320;2024-02-21T06:26:25;23.50;;;15.97;;
4472;SDS011;2249;42.626;23.320;2024-02-21T06:28:51;23.67;;;16.13;;
4472;SDS011;2249;42.626;23.320;2024-02-21T06:31:18;25.27;;;14.27;;
4472;SDS011;2249;42.626;23.320;2024-02-21T06:33:44;24.57;;;14.93;;
4472;SDS011;2249;42.626;23.320;2024-02-21T06:36:11;19.83;;;13.13;;
4472;SDS011;2249;42.626;23.320;2024-02-21T06:38:37;19.83;;;13.80;;
4472;SDS011;2249;42.626;23.320;2024-02-21T06:41:05;21.30;;;15.13;;
4472;SDS011;2249;42.626;23.320;2024-02-21T06:43:32;21.20;;;15.03;;
4472;SDS011;2249;42.626;23.320;2024-02-21T06:45:58;21.87;;;15.97;;
4472;SDS011;2249;42.626;23.320;2024-02-21T06:48:25;21.53;;;15.77;;
4472;SDS011;2249;42.626;23.320;2024-02-21T06:50:51;27.13;;;16.33;;
4472;SDS011;2249;42.626;23.320;2024-02-21T06:53:18;22.70;;;16.00;;
4472;SDS011;2249;42.626;23.320;2024-02-21T06:55:44;22.20;;;15.53;;
4472;SDS011;2249;42.626;23.320;2024-02-21T06:58:12;23.67;;;16.20;;
4472;SDS011;2249;42.626;23.320;2024-02-21T07:00:41;24.03;;;14.83;;
4472;SDS011;2249;42.626;23.320;2024-02-21T07:03:08;24.50;;;15.97;;
4472;SDS011;2249;42.626;23.320;2024-02-21T07:05:34;20.93;;;15.30;;
4472;SDS011;2249;42.626;23.320;2024-02-21T07:08:01;44.73;;;31.73;;
4472;SDS011;2249;42.626;23.320;2024-02-21T07:10:28;21.60;;;15.67;;
4472;SDS011;2249;42.626;23.320;2024-02-21T07:12:55;20.27;;;14.20;;
4472;SDS011;2249;42.626;23.320;2024-02-21T07:15:23;23.27;;;15.10;;
4472;SDS011;2249;42.626;23.320;2024-02-21T07:17:51;21.83;;;15.57;;
4472;SDS011;2249;42.626;23.320;2024-02-21T07:20:18;23.97;;;15.37;;
4472;SDS011;2249;42.626;23.320;2024-02-21T07:22:44;23.90;;;15.60;;
4472;SDS011;2249;42.626;23.320;2024-02-21T07:25:11;27.13;;;17.00;;
4472;SDS011;2249;42.626;23.320;2024-02-21T07:27:37;20.93;;;14.70;;
4472;SDS011;2249;42.626;23.320;2024-02-21T07:30:05;20.03;;;14.80;;
4472;SDS011;2249;42.626;23.320;2024-02-21T07:32:33;24.17;;;15.67;;
4472;SDS011;2249;42.626;23.320;2024-02-21T07:35:00;29.13;;;16.60;;
4472;SDS011;2249;42.626;23.320;2024-02-21T07:37:26;23.50;;;16.73;;
4472;SDS011;2249;42.626;23.320;2024-02-21T07:39:53;25.00;;;15.63;;
4472;SDS011;2249;42.626;23.320;2024-02-21T07:42:19;23.37;;;17.10;;
4472;SDS011;2249;42.626;23.320;2024-02-21T07:44:46;22.90;;;16.93;;
4472;SDS011;2249;42.626;23.320;2024-02-21T07:47:12;23.73;;;15.90;;
4472;SDS011;2249;42.626;23.320;2024-02-21T07:49:44;23.20;;;16.13;;
4472;SDS011;2249;42.626;23.320;2024-02-21T07:52:11;23.50;;;14.70;;
4472;SDS011;2249;42.626;23.320;2024-02-21T07:54:37;21.87;;;15.07;;
4472;SDS011;2249;42.626;23.320;2024-02-21T07:57:04;23.37;;;15.77;;
4472;SDS011;2249;42.626;23.320;2024-02-21T07:59:30;26.13;;;17.27;;
4472;SDS011;2249;42.626;23.320;2024-02-21T08:01:57;28.43;;;15.83;;
4472;SDS011;2249;42.626;23.320;2024-02-21T08:04:23;24.33;;;16.73;;
4472;SDS011;2249;42.626;23.320;2024-02-21T08:06:52;26.20;;;15.23;;
4472;SDS011;2249;42.626;23.320;2024-02-21T08:09:20;22.43;;;16.03;;
4472;SDS011;2249;42.626;23.320;2024-02-21T08:11:47;21.80;;;15.87;;
4472;SDS011;2249;42.626;23.320;2024-02-21T08:14:14;26.50;;;17.97;;
4472;SDS011;2249;42.626;23.320;2024-02-21T08:16:41;23.90;;;17.80;;
4472;SDS011;2249;42.626;23.320;2024-02-21T08:19:07;22.20;;;16.47;;
4472;SDS011;2249;42.626;23.320;2024-02-21T08:21:34;20.67;;;15.40;;
4472;SDS011;2249;42.626;23.320;2024-02-21T08:24:02;20.97;;;15.77;;
4472;SDS011;2249;42.626;23.320;2024-02-21T08:26:28;21.10;;;15.40;;
4472;SDS011;2249;42.626;23.320;2024-02-21T08:28:56;21.87;;;16.63;;
4472;SDS011;2249;42.626;23.320;2024-02-21T08:31:23;21.57;;;15.03;;
4472;SDS011;2249;42.626;23.320;2024-02-21T08:33:56;21.90;;;15.53;;
4472;SDS011;2249;42.626;23.320;2024-02-21T08:36:27;23.80;;;15.63;;
4472;SDS011;2249;42.626;23.320;2024-02-21T08:38:53;18.07;;;14.53;;
4472;SDS011;2249;42.626;23.320;2024-02-21T08:41:21;18.50;;;14.00;;
4472;SDS011;2249;42.626;23.320;2024-02-21T08:43:49;18.53;;;12.50;;
4472;SDS011;2249;42.626;23.320;2024-02-21T08:46:15;17.23;;;13.37;;
4472;SDS011;2249;42.626;23.320;2024-02-21T08:48:42;15.50;;;11.97;;
4472;SDS011;2249;42.626;23.320;2024-02-21T08:51:10;15.70;;;10.53;;
4472;SDS011;2249;42.626;23.320;2024-02-21T08:53:37;15.13;;;10.97;;
4472;SDS011;2249;42.626;23.320;2024-02-21T08:56:04;14.77;;;10.57;;
4472;SDS011;2249;42.626;23.320;2024-02-21T08:58:34;17.83;;;12.90;;
4472;SDS011;2249;42.626;23.320;2024-02-21T09:01:00;18.47;;;11.40;;
4472;SDS011;2249;42.626;23.320;2024-02-21T09:03:28;15.13;;;10.90;;
4472;SDS011;2249;42.626;23.320;2024-02-21T09:05:55;14.80;;;9.67;;
4472;SDS011;2249;42.626;23.320;2024-02-21T09:08:21;13.57;;;10.00;;
4472;SDS011;2249;42.626;23.320;2024-02-21T09:10:49;14.83;;;10.80;;
4472;SDS011;2249;42.626;23.320;2024-02-21T09:13:15;12.80;;;10.33;;
4472;SDS011;2249;42.626;23.320;2024-02-21T09:15:43;16.63;;;11.60;;
4472;SDS011;2249;42.626;23.320;2024-02-21T09:18:10;18.83;;;11.43;;
4472;SDS011;2249;42.626;23.320;2024-02-21T09:20:37;16.77;;;12.13;;
4472;SDS011;2249;42.626;23.320;2024-02-21T09:23:03;14.27;;;10.70;;
4472;SDS011;2249;42.626;23.320;2024-02-21T09:25:29;17.50;;;12.67;;
4472;SDS011;2249;42.626;23.320;2024-02-21T09:27:56;15.60;;;12.10;;
4472;SDS011;2249;42.626;23.320;2024-02-21T09:30:24;16.97;;;12.10;;
4472;SDS011;2249;42.626;23.320;2024-02-21T09:32:51;14.77;;;11.00;;
4472;SDS011;2249;42.626;23.320;2024-02-21T09:35:19;15.30;;;11.30;;
4472;SDS011;2249;42.626;23.320;2024-02-21T09:37:47;20.97;;;10.73;;
4472;SDS011;2249;42.626;23.320;2024-02-21T09:40:15;10.57;;;9.43;;
4472;SDS011;2249;42.626;23.320;2024-02-21T09:42:42;14.17;;;9.37;;
4472;SDS011;2249;42.626;23.320;2024-02-21T09:45:11;15.20;;;11.57;;
4472;SDS011;2249;42.626;23.320;2024-02-21T09:47:40;15.97;;;11.37;;
4472;SDS011;2249;42.626;23.320;2024-02-21T09:50:11;15.83;;;11.80;;
4472;SDS011;2249;42.626;23.320;2024-02-21T09:52:38;13.93;;;10.60;;
4472;SDS011;2249;42.626;23.320;2024-02-21T09:55:06;20.40;;;11.40;;
4472;SDS011;2249;42.626;23.320;2024-02-21T09:57:35;16.75;;;10.40;;
4472;SDS011;2249;42.626;23.320;2024-02-21T10:00:03;11.73;;;9.50;;
4472;SDS011;2249;42.626;23.320;2024-02-21T10:02:33;12.87;;;10.30;;
4472;SDS011;2249;42.626;23.320;2024-02-21T10:04:59;17.90;;;13.20;;
4472;SDS011;2249;42.626;23.320;2024-02-21T10:07:27;27.10;;;13.53;;
4472;SDS011;2249;42.626;23.320;2024-02-21T10:10:00;15.93;;;12.23;;
4472;SDS011;2249;42.626;23.320;2024-02-21T10:12:26;17.60;;;12.70;;
4472;SDS011;2249;42.626;23.320;2024-02-21T10:14:59;17.23;;;11.20;;
4472;SDS011;2249;42.626;23.320;2024-02-21T10:17:26;15.77;;;10.83;;
4472;SDS011;2249;42.626;23.320;2024-02-21T10:19:52;11.13;;;9.10;;
4472;SDS011;2249;42.626;23.320;2024-02-21T10:22:19;11.30;;;9.10;;
4472;SDS011;2249;42.626;23.320;2024-02-21T10:24:47;13.07;;;9.23;;
4472;SDS011;2249;42.626;23.320;2024-02-21T10:27:14;9.63;;;8.20;;
4472;SDS011;2249;42.626;23.320;2024-02-21T10:29:40;9.60;;;8.60;;
4472;SDS011;2249;42.626;23.320;2024-02-21T10:32:08;11.97;;;8.27;;
4472;SDS011;2249;42.626;23.320;2024-02-21T10:34:35;11.67;;;8.80;;
4472;SDS011;2249;42.626;23.320;2024-02-21T10:37:03;7.83;;;6.97;;
4472;SDS011;2249;42.626;23.320;2024-02-21T10:39:29;10.00;;;8.20;;
4472;SDS011;2249;42.626;23.320;2024-02-21T10:41:59;9.80;;;8.03;;
4472;SDS011;2249;42.626;23.320;2024-02-21T10:44:25;11.33;;;8.20;;
4472;SDS011;2249;42.626;23.320;2024-02-21T10:46:54;14.83;;;8.60;;
4472;SDS011;2249;42.626;23.320;2024-02-21T10:49:22;10.57;;;8.63;;
4472;SDS011;2249;42.626;23.320;2024-02-21T10:51:50;9.47;;;7.50;;
4472;SDS011;2249;42.626;23.320;2024-02-21T10:54:24;8.43;;;6.80;;
4472;SDS011;2249;42.626;23.320;2024-02-21T10:56:53;11.30;;;7.10;;
4472;SDS011;2249;42.626;23.320;2024-02-21T10:59:23;10.77;;;8.07;;
4472;SDS011;2249;42.626;23.320;2024-02-21T11:01:51;7.17;;;6.43;;
4472;SDS011;2249;42.626;23.320;2024-02-21T11:04:18;8.77;;;6.00;;
4472;SDS011;2249;42.626;23.320;2024-02-21T11:06:44;12.00;;;7.40;;
4472;SDS011;2249;42.626;23.320;2024-02-21T11:09:12;9.07;;;7.60;;
4472;SDS011;2249;42.626;23.320;2024-02-21T11:11:39;9.73;;;7.40;;
4472;SDS011;2249;42.626;23.320;2024-02-21T11:14:06;7.87;;;6.87;;
4472;SDS011;2249;42.626;23.320;2024-02-21T11:16:37;10.73;;;6.73;;
4472;SDS011;2249;42.626;23.320;2024-02-21T11:19:07;10.90;;;7.07;;
4472;SDS011;2249;42.626;23.320;2024-02-21T11:21:34;11.00;;;7.90;;
4472;SDS011;2249;42.626;23.320;2024-02-21T11:24:02;9.40;;;6.67;;
4472;SDS011;2249;42.626;23.320;2024-02-21T11:26:29;12.20;;;7.40;;
4472;SDS011;2249;42.626;23.320;2024-02-21T11:28:56;9.43;;;7.60;;
4472;SDS011;2249;42.626;23.320;2024-02-21T11:31:22;8.20;;;6.60;;
4472;SDS011;2249;42.626;23.320;2024-02-21T11:33:50;12.93;;;7.53;;
4472;SDS011;2249;42.626;23.320;2024-02-21T11:36:23;12.17;;;8.47;;
4472;SDS011;2249;42.626;23.320;2024-02-21T11:38:49;9.87;;;7.07;;
4472;SDS011;2249;42.626;23.320;2024-02-21T11:41:17;13.53;;;7.83;;
4472;SDS011;2249;42.626;23.320;2024-02-21T11:43:43;10.37;;;7.40;;
4472;SDS011;2249;42.626;23.320;2024-02-21T11:46:09;7.00;;;6.03;;
4472;SDS011;2249;42.626;23.320;2024-02-21T11:48:36;13.23;;;6.03;;
4472;SDS011;2249;42.626;23.320;2024-02-21T11:51:05;6.73;;;5.90;;
4472;SDS011;2249;42.626;23.320;2024-02-21T11:53:31;9.37;;;5.60;;
4472;SDS011;2249;42.626;23.320;2024-02-21T11:55:58;6.93;;;5.23;;
4472;SDS011;2249;42.626;23.320;2024-02-21T11:58:24;7.43;;;6.00;;
4472;SDS011;2249;42.626;23.320;2024-02-21T12:00:51;6.80;;;6.07;;
4472;SDS011;2249;42.626;23.320;2024-02-21T12:03:18;7.23;;;5.90;;
4472;SDS011;2249;42.626;23.320;2024-02-21T12:05:44;7.27;;;6.40;;
4472;SDS011;2249;42.626;23.320;2024-02-21T12:08:13;7.60;;;6.33;;
4472;SDS011;2249;42.626;23.320;2024-02-21T12:10:41;7.30;;;6.43;;
4472;SDS011;2249;42.626;23.320;2024-02-21T12:13:09;13.13;;;8.07;;
4472;SDS011;2249;42.626;23.320;2024-02-21T12:15:38;6.77;;;6.07;;
4472;SDS011;2249;42.626;23.320;2024-02-21T12:18:04;10.90;;;7.23;;
4472;SDS011;2249;42.626;23.320;2024-02-21T12:20:31;10.40;;;7.70;;
4472;SDS011;2249;42.626;23.320;2024-02-21T12:22:59;11.20;;;6.70;;
4472;SDS011;2249;42.626;23.320;2024-02-21T12:25:27;7.93;;;6.10;;
4472;SDS011;2249;42.626;23.320;2024-02-21T12:27:54;6.60;;;5.93;;
4472;SDS011;2249;42.626;23.320;2024-02-21T12:30:21;8.67;;;6.00;;
4472;SDS011;2249;42.626;23.320;2024-02-21T12:32:47;9.20;;;6.70;;
4472;SDS011;2249;42.626;23.320;2024-02-21T12:35:14;8.00;;;6.83;;
4472;SDS011;2249;42.626;23.320;2024-02-21T12:37:41;11.43;;;7.07;;
4472;SDS011;2249;42.626;23.320;2024-02-21T12:40:08;10.63;;;6.87;;
4472;SDS011;2249;42.626;23.320;2024-02-21T12:42:37;9.30;;;7.10;;
4472;SDS011;2249;42.626;23.320;2024-02-21T12:45:03;12.00;;;6.53;;
4472;SDS011;2249;42.626;23.320;2024-02-21T12:47:30;11.07;;;8.43;;
4472;SDS011;2249;42.626;23.320;2024-02-21T12:49:56;12.43;;;8.20;;
4472;SDS011;2249;42.626;23.320;2024-02-21T12:52:23;10.80;;;7.43;;
4472;SDS011;2249;42.626;23.320;2024-02-21T12:54:50;11.50;;;7.63;;
4472;SDS011;2249;42.626;23.320;2024-02-21T12:57:16;6.50;;;5.77;;
4472;SDS011;2249;42.626;23.320;2024-02-21T12:59:44;11.20;;;7.20;;
4472;SDS011;2249;42.626;23.320;2024-02-21T13:02:11;9.43;;;7.60;;
4472;SDS011;2249;42.626;23.320;2024-02-21T13:04:37;12.90;;;8.30;;
4472;SDS011;2249;42.626;23.320;2024-02-21T13:07:05;8.90;;;6.50;;
4472;SDS011;2249;42.626;23.320;2024-02-21T13:09:32;12.03;;;6.63;;
4472;SDS011;2249;42.626;23.320;2024-02-21T13:11:59;11.10;;;5.13;;
4472;SDS011;2249;42.626;23.320;2024-02-21T13:14:27;7.40;;;4.87;;
4472;SDS011;2249;42.626;23.320;2024-02-21T13:16:55;9.10;;;6.23;;
4472;SDS011;2249;42.626;23.320;2024-02-21T13:19:21;10.23;;;5.37;;
4472;SDS011;2249;42.626;23.320;2024-02-21T13:21:48;7.90;;;5.57;;
4472;SDS011;2249;42.626;23.320;2024-02-21T13:24:14;12.43;;;5.43;;
4472;SDS011;2249;42.626;23.320;2024-02-21T13:26:41;9.60;;;6.70;;
4472;SDS011;2249;42.626;23.320;2024-02-21T13:29:07;10.70;;;6.90;;
4472;SDS011;2249;42.626;23.320;2024-02-21T13:31:34;10.97;;;6.80;;
4472;SDS011;2249;42.626;23.320;2024-02-21T13:34:02;11.43;;;7.20;;
4472;SDS011;2249;42.626;23.320;2024-02-21T13:36:28;10.60;;;7.73;;
4472;SDS011;2249;42.626;23.320;2024-02-21T13:38:55;15.90;;;8.60;;
4472;SDS011;2249;42.626;23.320;2024-02-21T13:41:21;14.47;;;8.80;;
4472;SDS011;2249;42.626;23.320;2024-02-21T13:43:48;9.80;;;7.20;;
4472;SDS011;2249;42.626;23.320;2024-02-21T13:46:15;10.87;;;9.10;;
4472;SDS011;2249;42.626;23.320;2024-02-21T13:48:41;12.57;;;8.40;;
4472;SDS011;2249;42.626;23.320;2024-02-21T13:51:09;12.03;;;8.67;;
4472;SDS011;2249;42.626;23.320;2024-02-21T13:53:36;12.00;;;9.20;;
4472;SDS011;2249;42.626;23.320;2024-02-21T13:56:03;17.50;;;8.60;;
4472;SDS011;2249;42.626;23.320;2024-02-21T13:58:30;9.67;;;7.33;;
4472;SDS011;2249;42.626;23.320;2024-02-21T14:00:56;9.93;;;8.30;;
4472;SDS011;2249;42.626;23.320;2024-02-21T14:03:23;10.70;;;7.57;;
4472;SDS011;2249;42.626;23.320;2024-02-21T14:05:50;9.60;;;7.50;;
4472;SDS011;2249;42.626;23.320;2024-02-21T14:08:19;12.70;;;8.53;;
4472;SDS011;2249;42.626;23.320;2024-02-21T14:10:45;13.40;;;9.70;;
4472;SDS011;2249;42.626;23.320;2024-02-21T14:13:12;26.00;;;14.20;;
4472;SDS011;2249;42.626;23.320;2024-02-21T14:15:39;15.90;;;10.73;;
4472;SDS011;2249;42.626;23.320;2024-02-21T14:18:06;21.43;;;13.47;;
4472;SDS011;2249;42.626;23.320;2024-02-21T14:20:34;28.90;;;16.73;;
4472;SDS011;2249;42.626;23.320;2024-02-21T14:23:01;37.57;;;20.77;;
4472;SDS011;2249;42.626;23.320;2024-02-21T14:25:28;16.07;;;11.30;;
4472;SDS011;2249;42.626;23.320;2024-02-21T14:27:55;16.30;;;10.00;;
4472;SDS011;2249;42.626;23.320;2024-02-21T14:30:21;14.30;;;9.00;;
4472;SDS011;2249;42.626;23.320;2024-02-21T14:32:48;18.03;;;12.10;;
4472;SDS011;2249;42.626;23.320;2024-02-21T14:35:16;36.00;;;19.90;;
4472;SDS011;2249;42.626;23.320;2024-02-21T14:37:43;25.73;;;15.73;;
4472;SDS011;2249;42.626;23.320;2024-02-21T14:40:11;18.97;;;12.80;;
4472;SDS011;2249;42.626;23.320;2024-02-21T14:42:39;15.67;;;9.93;;